createdAt,value
2019-02-15T00:02:10.396Z,97.20
2019-02-15T00:04:39.191Z,97.30
2019-02-15T00:07:08.122Z,97.40
2019-02-15T00:09:36.950Z,97.70
2019-02-15T00:12:05.850Z,97.70
2019-02-15T00:14:46.822Z,97.70
2019-02-15T00:17:18.994Z,97.70
2019-02-15T00:19:51.579Z,97.90
2019-02-15T00:22:20.374Z,97.80
2019-02-15T00:24:49.214Z,97.80
2019-02-15T00:27:18.091Z,97.80
2019-02-15T00:29:48.162Z,97.70
2019-02-15T00:32:17.381Z,97.70
2019-02-15T00:34:46.631Z,97.80
2019-02-15T00:37:15.405Z,97.80
2019-02-15T00:39:44.363Z,97.80
2019-02-15T00:42:13.247Z,97.70
2019-02-15T00:44:42.383Z,97.70
2019-02-15T00:47:32.999Z,97.70
2019-02-15T00:50:13.226Z,97.70
2019-02-15T00:53:04.247Z,97.90
2019-02-15T00:55:58.452Z,97.90
2019-02-15T00:58:55.931Z,98.00
2019-02-15T01:01:42.726Z,98.10
2019-02-15T01:04:28.878Z,98.20
2019-02-15T01:07:13.184Z,98.20
2019-02-15T01:09:58.303Z,98.10
2019-02-15T01:12:33.483Z,97.80
2019-02-15T01:15:02.755Z,97.80
2019-02-15T01:17:31.590Z,97.90
2019-02-15T01:20:00.782Z,97.90
2019-02-15T01:22:29.768Z,98.00
2019-02-15T01:24:59.589Z,97.90
2019-02-15T01:27:38.744Z,97.70
2019-02-15T01:30:32.729Z,97.60
2019-02-15T01:33:17.599Z,97.70
2019-02-15T01:35:56.094Z,98.00
2019-02-15T01:38:43.992Z,98.10
2019-02-15T01:41:31.880Z,98.10
2019-02-15T01:44:06.483Z,98.20
2019-02-15T01:46:41.258Z,98.10
2019-02-15T01:49:10.167Z,98.10
2019-02-15T01:51:39.107Z,98.10
2019-02-15T01:54:08.014Z,98.20
2019-02-15T01:56:36.809Z,98.30
2019-02-15T01:59:05.631Z,98.70
2019-02-15T02:01:34.510Z,98.60
2019-02-15T02:04:03.943Z,98.40
2019-02-15T02:06:32.755Z,98.30
2019-02-15T02:09:01.630Z,98.30
2019-02-15T02:11:32.079Z,98.20
2019-02-15T02:14:01.095Z,98.20
2019-02-15T02:16:29.875Z,98.20
2019-02-15T02:18:58.796Z,98.10
2019-02-15T02:21:27.604Z,98.10
2019-02-15T02:23:56.826Z,98.10
2019-02-15T02:26:25.846Z,98.30
2019-02-15T02:28:54.723Z,98.30
2019-02-15T02:31:23.620Z,98.20
2019-02-15T02:33:52.672Z,98.10
2019-02-15T02:36:21.723Z,98.00
2019-02-15T02:38:50.863Z,98.10
2019-02-15T02:41:19.662Z,98.10
2019-02-15T02:43:48.506Z,98.30
2019-02-15T02:46:17.332Z,98.40
2019-02-15T02:48:46.183Z,98.50
2019-02-15T02:51:15.285Z,98.50
2019-02-15T02:53:44.143Z,98.50
2019-02-15T02:56:13.020Z,98.50
2019-02-15T02:58:41.819Z,98.70
2019-02-15T03:01:10.618Z,98.70
2019-02-15T03:03:39.450Z,98.50
2019-02-15T03:06:08.250Z,98.50
2019-02-15T03:08:37.091Z,98.50
2019-02-15T03:11:05.967Z,98.70
2019-02-15T03:13:34.747Z,98.70
2019-02-15T03:16:03.537Z,98.80
2019-02-15T03:18:32.402Z,98.80
2019-02-15T03:21:01.294Z,98.60
2019-02-15T03:23:30.262Z,98.60
2019-02-15T03:25:59.180Z,98.60
2019-02-15T03:28:28.014Z,98.60
2019-02-15T03:30:56.902Z,98.70
2019-02-15T03:33:25.764Z,98.40
2019-02-15T03:35:57.549Z,98.60
2019-02-15T03:38:35.579Z,98.60
2019-02-15T03:41:05.813Z,98.80
2019-02-15T03:43:34.662Z,98.90
2019-02-15T03:46:03.707Z,98.90
2019-02-15T03:48:32.825Z,98.90
2019-02-15T03:51:01.588Z,98.90
2019-02-15T03:53:30.460Z,99.00
2019-02-15T03:55:59.647Z,99.00
2019-02-15T03:58:28.469Z,99.00
2019-02-15T04:00:57.376Z,99.10
2019-02-15T04:03:27.232Z,99.00
2019-02-15T04:05:56.303Z,99.00
2019-02-15T04:08:25.228Z,99.00
2019-02-15T04:10:54.180Z,99.10
2019-02-15T04:13:23.176Z,99.20
2019-02-15T04:15:52.255Z,99.10
2019-02-15T04:18:21.510Z,99.00
2019-02-15T04:20:50.388Z,99.00
2019-02-15T04:23:19.215Z,99.00
2019-02-15T04:25:48.161Z,98.90
2019-02-15T04:28:17.310Z,99.00
2019-02-15T04:30:46.062Z,99.10
2019-02-15T04:33:15.275Z,99.10
2019-02-15T04:35:44.070Z,99.20
2019-02-15T04:38:12.854Z,99.20
2019-02-15T04:40:41.659Z,99.30
2019-02-15T04:43:10.440Z,99.30
2019-02-15T04:45:39.252Z,99.30
2019-02-15T04:48:08.051Z,99.20
2019-02-15T04:50:36.872Z,99.40
2019-02-15T04:53:05.644Z,99.50
2019-02-15T04:55:34.406Z,99.60
2019-02-15T04:58:03.287Z,99.50
2019-02-15T05:00:32.468Z,99.40
2019-02-15T05:03:01.273Z,99.30
2019-02-15T05:05:30.120Z,99.20
2019-02-15T05:07:59.438Z,99.30
2019-02-15T05:10:28.570Z,99.20
2019-02-15T05:12:57.422Z,99.20
2019-02-15T05:15:26.550Z,99.10
2019-02-15T05:17:55.362Z,99.20
2019-02-15T05:20:24.157Z,99.20
2019-02-15T05:22:53.298Z,99.30
2019-02-15T05:25:22.105Z,99.30
2019-02-15T05:27:51.207Z,99.40
2019-02-15T05:30:20.002Z,99.40
2019-02-15T05:32:48.800Z,99.40
2019-02-15T05:35:17.650Z,99.40
2019-02-15T05:37:46.395Z,99.40
2019-02-15T05:40:15.219Z,99.40
2019-02-15T05:42:43.999Z,99.60
2019-02-15T05:45:12.939Z,99.60
2019-02-15T05:47:41.743Z,99.50
2019-02-15T05:50:10.582Z,99.40
2019-02-15T05:52:40.116Z,99.30
2019-02-15T05:55:09.031Z,99.30
2019-02-15T05:57:37.928Z,99.10
2019-02-15T06:00:08.020Z,99.10
2019-02-15T06:02:56.096Z,99.10
2019-02-15T06:05:24.962Z,99.20
2019-02-15T06:07:53.876Z,99.30
2019-02-15T06:10:23.186Z,99.40
2019-02-15T06:12:51.964Z,99.40
2019-02-15T06:15:20.863Z,99.30
2019-02-15T06:17:49.766Z,99.20
2019-02-15T06:20:18.594Z,99.20
2019-02-15T06:22:47.470Z,99.30
2019-02-15T06:25:16.342Z,99.30
2019-02-15T06:27:45.162Z,99.50
2019-02-15T06:30:14.051Z,99.70
2019-02-15T06:32:42.878Z,99.70
2019-02-15T06:35:18.571Z,99.60
2019-02-15T06:37:56.379Z,99.50
2019-02-15T06:40:34.866Z,99.60
2019-02-15T06:43:03.995Z,99.50
2019-02-15T06:45:32.800Z,99.60
2019-02-15T06:48:01.598Z,99.70
2019-02-15T06:50:30.735Z,99.90
2019-02-15T06:52:59.803Z,99.80
2019-02-15T06:55:28.983Z,99.70
2019-02-15T06:57:57.782Z,99.50
2019-02-15T07:00:48.984Z,99.40
2019-02-15T07:03:36.838Z,99.40
2019-02-15T07:06:05.750Z,99.50
2019-02-15T07:08:34.905Z,99.50
2019-02-15T07:11:03.826Z,99.60
2019-02-15T07:13:32.636Z,99.80
2019-02-15T07:16:01.409Z,99.90
2019-02-15T07:18:30.186Z,99.90
2019-02-15T07:20:59.031Z,99.90
2019-02-15T07:23:27.786Z,99.80
2019-02-15T07:25:56.636Z,99.90
2019-02-15T07:28:25.895Z,99.90
2019-02-15T07:30:54.681Z,99.50
2019-02-15T07:33:23.483Z,98.80
2019-02-15T07:35:52.342Z,97.60
2019-02-15T07:38:21.130Z,97.90
2019-02-15T07:40:50.239Z,97.00
2019-02-15T07:43:19.034Z,95.50
2019-02-15T07:45:47.990Z,93.80
2019-02-15T07:48:17.099Z,92.50
2019-02-15T07:50:45.863Z,92.00
2019-02-15T07:53:14.652Z,91.60
2019-02-15T07:55:43.792Z,91.10
2019-02-15T07:58:12.630Z,92.10
2019-02-15T08:00:41.502Z,91.50
2019-02-15T08:03:10.676Z,90.70
2019-02-15T08:05:39.459Z,90.90
2019-02-15T08:08:08.222Z,90.60
2019-02-15T08:10:37.022Z,88.90
2019-02-15T08:13:05.809Z,89.30
2019-02-15T08:15:36.461Z,88.40
2019-02-15T08:18:05.438Z,85.50
2019-02-15T08:20:34.210Z,83.90
2019-02-15T08:23:03.377Z,82.10
2019-02-15T08:25:32.188Z,82.00
2019-02-15T08:28:00.959Z,80.40
2019-02-15T08:30:30.081Z,79.20
2019-02-15T08:32:59.167Z,75.60
2019-02-15T08:35:27.942Z,75.00
2019-02-15T08:37:56.726Z,75.10
2019-02-15T08:40:25.530Z,74.10
2019-02-15T08:42:56.031Z,73.60
2019-02-15T08:45:24.958Z,73.70
2019-02-15T08:47:53.754Z,71.70
2019-02-15T08:50:23.010Z,73.40
2019-02-15T08:52:52.159Z,71.40
2019-02-15T08:55:21.363Z,70.60
2019-02-15T08:57:50.142Z,68.80
2019-02-15T09:00:19.018Z,67.50
2019-02-15T09:02:48.035Z,65.70
2019-02-15T09:05:16.962Z,64.90
2019-02-15T09:07:45.806Z,64.20
2019-02-15T09:10:14.734Z,62.50
2019-02-15T09:12:43.643Z,61.40
2019-02-15T09:15:15.167Z,63.00
2019-02-15T09:17:44.090Z,62.60
2019-02-15T09:20:13.210Z,61.50
2019-02-15T09:22:42.017Z,62.40
2019-02-15T09:25:11.142Z,61.30
2019-02-15T09:28:14.503Z,61.60
2019-02-15T09:30:46.262Z,60.50
2019-02-15T09:33:15.464Z,59.70
2019-02-15T09:35:44.230Z,58.60
2019-02-15T09:38:13.086Z,57.60
2019-02-15T09:40:41.911Z,57.90
2019-02-15T09:43:11.730Z,56.50
2019-02-15T09:45:40.575Z,55.20
2019-02-15T09:48:09.829Z,56.50
2019-02-15T09:50:38.674Z,55.10
2019-02-15T09:53:07.489Z,54.30
2019-02-15T09:55:36.334Z,52.40
2019-02-15T09:58:05.243Z,50.60
2019-02-15T10:00:34.048Z,51.60
2019-02-15T10:03:03.250Z,49.80
2019-02-15T10:05:32.096Z,50.60
2019-02-15T10:08:00.955Z,51.20
2019-02-15T10:10:29.797Z,52.00
2019-02-15T10:12:59.110Z,49.50
2019-02-15T10:15:27.957Z,50.60
2019-02-15T10:17:57.130Z,49.20
2019-02-15T10:20:26.036Z,49.10
2019-02-15T10:22:54.845Z,49.80
2019-02-15T10:25:23.698Z,48.00
2019-02-15T10:27:52.579Z,48.50
2019-02-15T10:30:21.707Z,48.80
2019-02-15T10:32:50.518Z,48.40
2019-02-15T10:35:19.333Z,46.60
2019-02-15T10:37:48.147Z,46.90
2019-02-15T10:40:16.960Z,44.20
2019-02-15T10:42:46.073Z,47.40
2019-02-15T10:45:15.142Z,47.70
2019-02-15T10:47:44.126Z,45.10
2019-02-15T10:50:13.019Z,44.80
2019-02-15T10:52:41.866Z,46.40
2019-02-15T10:55:10.855Z,44.50
2019-02-15T10:57:40.063Z,43.70
2019-02-15T11:00:13.006Z,43.10
2019-02-15T11:02:41.875Z,43.00
2019-02-15T11:05:11.098Z,44.10
2019-02-15T11:07:40.061Z,44.40
2019-02-15T11:10:08.995Z,42.00
2019-02-15T11:12:37.826Z,40.40
2019-02-15T11:15:07.482Z,40.80
2019-02-15T11:17:36.300Z,38.90
2019-02-15T11:20:05.416Z,38.70
2019-02-15T11:22:34.179Z,38.40
2019-02-15T11:25:02.995Z,38.50
2019-02-15T11:27:31.822Z,39.60
2019-02-15T11:30:00.703Z,41.30
2019-02-15T11:32:29.517Z,41.40
2019-02-15T11:34:58.364Z,40.40
2019-02-15T11:37:27.252Z,38.50
2019-02-15T11:39:56.115Z,39.70
2019-02-15T11:42:25.270Z,41.40
2019-02-15T11:44:54.239Z,39.60
2019-02-15T11:47:23.073Z,38.10
2019-02-15T11:49:51.910Z,36.50
2019-02-15T11:52:20.794Z,37.30
2019-02-15T11:54:49.840Z,41.10
2019-02-15T11:57:18.659Z,38.00
2019-02-15T11:59:47.794Z,40.10
2019-02-15T12:02:16.719Z,39.10
2019-02-15T12:04:45.501Z,38.30
2019-02-15T12:07:14.398Z,38.60
2019-02-15T12:09:43.291Z,37.00
2019-02-15T12:12:12.290Z,38.50
2019-02-15T12:14:41.355Z,38.00
2019-02-15T12:17:10.153Z,36.10
2019-02-15T12:19:38.987Z,37.60
2019-02-15T12:22:07.913Z,39.10
2019-02-15T12:24:36.741Z,39.40
2019-02-15T12:27:05.571Z,38.00
2019-02-15T12:29:34.718Z,38.90
2019-02-15T12:32:03.707Z,38.20
2019-02-15T12:34:32.558Z,36.60
2019-02-15T12:37:01.363Z,34.70
2019-02-15T12:39:30.200Z,36.20
2019-02-15T12:41:59.011Z,35.00
2019-02-15T12:44:27.931Z,36.10
2019-02-15T12:46:56.900Z,32.20
2019-02-15T12:49:25.746Z,34.50
2019-02-15T12:51:54.685Z,34.80
2019-02-15T12:54:23.511Z,34.40
2019-02-15T12:56:52.389Z,32.80
2019-02-15T12:59:21.571Z,34.10
2019-02-15T13:01:50.477Z,35.00
2019-02-15T13:04:19.719Z,36.30
2019-02-15T13:06:48.624Z,38.00
2019-02-15T13:09:17.414Z,36.50
2019-02-15T13:11:46.334Z,35.40
2019-02-15T13:14:15.151Z,34.00
2019-02-15T13:16:44.347Z,36.10
2019-02-15T13:19:13.300Z,35.40
2019-02-15T13:21:42.541Z,34.20
2019-02-15T13:24:11.438Z,34.90
2019-02-15T13:26:40.231Z,34.10
2019-02-15T13:29:09.171Z,33.10
2019-02-15T13:31:38.082Z,32.00
2019-02-15T13:34:07.015Z,31.90
2019-02-15T13:36:35.902Z,30.90
2019-02-15T13:39:06.095Z,31.70
2019-02-15T13:41:35.382Z,31.30
2019-02-15T13:44:04.385Z,30.60
2019-02-15T13:46:33.442Z,32.20
2019-02-15T13:49:02.966Z,31.60
2019-02-15T13:51:31.831Z,31.20
2019-02-15T13:54:00.744Z,31.60
2019-02-15T13:56:29.586Z,32.70
2019-02-15T13:58:58.495Z,31.80
2019-02-15T14:01:27.413Z,29.90
2019-02-15T14:03:56.284Z,30.00
2019-02-15T14:06:25.210Z,30.70
2019-02-15T14:08:54.059Z,30.70
2019-02-15T14:11:22.847Z,30.80
2019-02-15T14:13:51.681Z,30.90
2019-02-15T14:16:20.555Z,31.40
2019-02-15T14:18:50.220Z,31.10
2019-02-15T14:21:19.069Z,31.70
2019-02-15T14:23:48.076Z,31.50
2019-02-15T14:26:17.033Z,33.00
2019-02-15T14:28:46.631Z,31.80
2019-02-15T14:31:15.565Z,31.30
2019-02-15T14:33:44.529Z,33.40
2019-02-15T14:36:13.507Z,33.50
2019-02-15T14:38:42.405Z,33.20
2019-02-15T14:41:11.648Z,33.20
2019-02-15T14:43:40.706Z,32.00
2019-02-15T14:46:09.561Z,33.20
2019-02-15T14:48:38.418Z,32.40
2019-02-15T14:51:07.224Z,33.30
2019-02-15T14:53:36.046Z,31.90
2019-02-15T14:56:04.875Z,33.10
2019-02-15T14:58:33.734Z,34.10
2019-02-15T15:01:02.607Z,34.60
2019-02-15T15:03:31.658Z,32.10
2019-02-15T15:06:00.498Z,32.10
2019-02-15T15:08:30.797Z,33.00
2019-02-15T15:10:59.811Z,34.20
2019-02-15T15:13:28.607Z,31.00
2019-02-15T15:15:57.806Z,32.00
2019-02-15T15:18:26.677Z,32.60
2019-02-15T15:20:55.506Z,32.60
2019-02-15T15:23:24.556Z,32.40
2019-02-15T15:25:53.443Z,31.70
2019-02-15T15:28:22.344Z,33.30
2019-02-15T15:30:51.228Z,32.30
2019-02-15T15:33:20.141Z,32.20
2019-02-15T15:35:49.059Z,34.10
2019-02-15T15:38:17.922Z,33.80
2019-02-15T15:40:46.782Z,32.80
2019-02-15T15:43:15.763Z,33.60
2019-02-15T15:45:44.603Z,34.70
2019-02-15T15:48:22.163Z,35.30
2019-02-15T15:50:44.251Z,36.00
2019-02-15T15:53:13.086Z,35.80
2019-02-15T15:55:41.936Z,37.40
2019-02-15T15:58:10.795Z,37.80
2019-02-15T16:00:39.654Z,37.00
2019-02-15T16:03:08.529Z,37.50
2019-02-15T16:05:37.386Z,38.80
2019-02-15T16:08:06.246Z,40.90
2019-02-15T16:10:35.230Z,44.00
2019-02-15T16:13:04.138Z,46.90
2019-02-15T16:15:33.013Z,48.40
2019-02-15T16:18:04.110Z,50.60
2019-02-15T16:20:33.379Z,52.50
2019-02-15T16:23:02.279Z,53.50
2019-02-15T16:25:31.100Z,55.70
2019-02-15T16:27:59.961Z,56.60
2019-02-15T16:30:28.965Z,56.90
2019-02-15T16:33:00.116Z,57.40
2019-02-15T16:35:28.667Z,58.80
2019-02-15T16:37:57.738Z,59.40
2019-02-15T16:40:26.590Z,60.20
2019-02-15T16:42:55.569Z,61.50
2019-02-15T16:45:28.771Z,62.80
2019-02-15T16:47:57.628Z,64.40
2019-02-15T16:50:26.551Z,64.50
2019-02-15T16:52:55.367Z,66.00
2019-02-15T16:55:24.502Z,67.10
2019-02-15T16:57:53.481Z,69.00
2019-02-15T17:00:22.506Z,69.80
2019-02-15T17:02:51.402Z,71.60
2019-02-15T17:05:20.367Z,71.40
2019-02-15T17:07:49.178Z,72.10
2019-02-15T17:10:18.138Z,75.60
2019-02-15T17:12:47.459Z,75.70
2019-02-15T17:15:19.383Z,75.80
2019-02-15T17:17:48.269Z,78.10
2019-02-15T17:20:17.073Z,78.10
2019-02-15T17:22:45.937Z,78.20
2019-02-15T17:25:14.767Z,78.70
2019-02-15T17:27:43.623Z,79.80
2019-02-15T17:30:12.750Z,80.60
2019-02-15T17:32:41.615Z,79.60
2019-02-15T17:35:10.577Z,80.30
2019-02-15T17:37:39.476Z,80.30
2019-02-15T17:40:09.716Z,80.50
2019-02-15T17:42:38.907Z,80.80
2019-02-15T17:45:08.830Z,81.10
2019-02-15T17:47:37.683Z,81.60
2019-02-15T17:50:06.782Z,82.50
2019-02-15T17:52:35.712Z,83.50
2019-02-15T17:55:04.675Z,83.70
2019-02-15T17:57:33.666Z,84.10
2019-02-15T18:00:02.752Z,83.80
2019-02-15T18:02:31.654Z,83.00
2019-02-15T18:05:00.538Z,82.80
2019-02-15T18:07:29.371Z,82.50
2019-02-15T18:09:58.168Z,83.00
2019-02-15T18:12:26.957Z,83.00
2019-02-15T18:14:55.818Z,83.50
2019-02-15T18:17:24.631Z,84.40
2019-02-15T18:19:53.416Z,84.20
2019-02-15T18:22:22.234Z,84.30
2019-02-15T18:24:51.118Z,84.10
2019-02-15T18:27:19.935Z,84.60
2019-02-15T18:29:49.007Z,84.50
2019-02-15T18:32:17.803Z,84.60
2019-02-15T18:34:46.645Z,84.60
2019-02-15T18:37:15.502Z,85.00
2019-02-15T18:39:44.354Z,85.40
2019-02-15T18:42:13.162Z,86.20
2019-02-15T18:44:42.051Z,86.50
2019-02-15T18:47:11.072Z,87.30
2019-02-15T18:49:39.908Z,87.60
2019-02-15T18:52:09.011Z,87.70
2019-02-15T18:54:37.815Z,88.10
2019-02-15T18:57:06.727Z,88.90
2019-02-15T18:59:35.594Z,90.20
2019-02-15T19:02:04.468Z,90.00
2019-02-15T19:04:33.242Z,90.20
2019-02-15T19:07:02.087Z,90.40
2019-02-15T19:09:30.862Z,90.40
2019-02-15T19:11:59.943Z,90.80
2019-02-15T19:14:28.746Z,90.70
2019-02-15T19:16:57.519Z,90.90
2019-02-15T19:19:29.126Z,91.10
2019-02-15T19:21:57.205Z,91.20
2019-02-15T19:24:26.039Z,91.30
2019-02-15T19:26:54.889Z,91.70
2019-02-15T19:29:23.688Z,91.90
2019-02-15T19:31:52.621Z,92.00
2019-02-15T19:34:21.734Z,92.10
2019-02-15T19:36:50.642Z,92.30
2019-02-15T19:39:19.564Z,92.40
2019-02-15T19:41:48.352Z,92.70
2019-02-15T19:44:17.180Z,93.00
2019-02-15T19:46:45.959Z,93.00
2019-02-15T19:49:14.798Z,93.10
2019-02-15T19:51:43.603Z,93.80
2019-02-15T19:54:12.370Z,93.50
2019-02-15T19:56:41.258Z,93.80
2019-02-15T19:59:10.115Z,94.20
2019-02-15T20:01:39.200Z,94.20
2019-02-15T20:04:08.241Z,94.20
2019-02-15T20:06:37.042Z,94.20
2019-02-15T20:09:06.423Z,94.10
2019-02-15T20:11:35.238Z,94.30
2019-02-15T20:14:05.639Z,94.40
2019-02-15T20:16:34.443Z,94.50
2019-02-15T20:19:03.228Z,94.40
2019-02-15T20:21:32.135Z,94.40
2019-02-15T20:24:00.934Z,94.40
2019-02-15T20:26:30.027Z,94.80
2019-02-15T20:28:59.159Z,94.80
2019-02-15T20:31:28.061Z,95.00
2019-02-15T20:33:56.885Z,95.10
2019-02-15T20:36:25.723Z,94.90
2019-02-15T20:38:54.523Z,95.00
2019-02-15T20:41:23.328Z,95.10
2019-02-15T20:43:52.151Z,95.20
2019-02-15T20:46:20.995Z,95.30
2019-02-15T20:49:03.822Z,95.70
2019-02-15T20:51:20.747Z,95.70
2019-02-15T20:53:49.573Z,95.70
2019-02-15T20:56:18.363Z,95.90
2019-02-15T20:58:47.291Z,95.90
2019-02-15T21:01:16.105Z,96.10
2019-02-15T21:03:45.214Z,96.30
2019-02-15T21:06:14.763Z,96.20
2019-02-15T21:08:43.896Z,96.40
2019-02-15T21:11:12.714Z,96.60
2019-02-15T21:13:41.554Z,96.50
2019-02-15T21:16:10.367Z,96.50
2019-02-15T21:18:39.197Z,96.60
2019-02-15T21:21:07.999Z,96.70
2019-02-15T21:23:36.810Z,97.00
2019-02-15T21:26:05.666Z,96.90
2019-02-15T21:28:34.504Z,97.20
2019-02-15T21:31:03.359Z,97.10
2019-02-15T21:33:32.237Z,97.10
2019-02-15T21:36:01.778Z,97.30
2019-02-15T21:38:30.585Z,97.60
2019-02-15T21:40:59.722Z,97.40
2019-02-15T21:43:28.559Z,97.50
2019-02-15T21:45:57.662Z,97.30
2019-02-15T21:48:26.515Z,97.20
2019-02-15T21:50:55.418Z,97.30
2019-02-15T21:53:24.306Z,97.20
2019-02-15T21:55:53.435Z,97.40
2019-02-15T21:58:22.244Z,97.40
2019-02-15T22:00:51.122Z,97.40
2019-02-15T22:03:19.976Z,97.40
2019-02-15T22:05:48.847Z,97.60
2019-02-15T22:08:17.653Z,97.50
2019-02-15T22:10:46.441Z,97.30
2019-02-15T22:13:15.230Z,97.20
2019-02-15T22:15:44.171Z,97.10
2019-02-15T22:18:13.020Z,97.10
2019-02-15T22:20:41.810Z,97.20
2019-02-15T22:23:10.622Z,97.20
2019-02-15T22:25:42.638Z,97.20
2019-02-15T22:28:11.799Z,97.20
2019-02-15T22:30:40.595Z,97.20
2019-02-15T22:33:09.397Z,97.30
2019-02-15T22:35:38.321Z,97.40
2019-02-15T22:38:07.120Z,97.50
2019-02-15T22:40:37.998Z,97.40
2019-02-15T22:43:09.686Z,97.60
2019-02-15T22:45:38.562Z,97.30
2019-02-15T22:48:07.423Z,97.50
2019-02-15T22:50:36.591Z,97.60
2019-02-15T22:53:05.496Z,97.50
2019-02-15T22:55:34.370Z,97.60
2019-02-15T22:58:04.675Z,97.60
2019-02-15T23:00:50.951Z,97.40
2019-02-15T23:03:22.166Z,97.40
2019-02-15T23:05:51.121Z,97.30
2019-02-15T23:08:20.062Z,97.30
2019-02-15T23:10:49.031Z,97.50
2019-02-15T23:13:18.107Z,97.60
2019-02-15T23:15:47.090Z,97.40
2019-02-15T23:18:15.973Z,97.50
2019-02-15T23:20:45.689Z,97.50
2019-02-15T23:23:14.791Z,97.80
2019-02-15T23:25:46.095Z,97.90
2019-02-15T23:28:14.956Z,98.00
2019-02-15T23:30:43.822Z,98.20
2019-02-15T23:33:12.938Z,98.30
2019-02-15T23:35:41.727Z,98.50
2019-02-15T23:38:10.567Z,98.60
2019-02-15T23:40:39.411Z,98.60
2019-02-15T23:43:08.275Z,98.40
2019-02-15T23:45:37.159Z,98.40
2019-02-15T23:48:05.946Z,98.40
2019-02-15T23:50:34.743Z,98.40
2019-02-15T23:53:03.662Z,98.80
2019-02-15T23:55:32.470Z,98.50
2019-02-15T23:58:01.302Z,98.50
